Time;durP1;ratioP1;P1;durP2;ratioP2;P2;SDS_P1;SDS_P2;PMS_P1;PMS_P2;Temp;Humidity;BMP_temperature;BMP_pressure;BME280_temperature;BME280_humidity;BME280_pressure;Samples;Min_cycle;Max_cycle;Signal;HPM_P1;HPM_P2
2021/09/27 00:02:00;;;;;;;47.57;44.30;;;;;;;17.82;100.00;101015.45;1941362;74;31042;-67
2021/09/27 00:07:27;;;;;;;48.70;45.53;;;;;;;17.89;100.00;101008.74;1941182;74;31030;-68
2021/09/27 00:12:52;;;;;;;45.83;42.83;;;;;;;17.99;100.00;101008.42;1941098;74;31039;-67
2021/09/27 00:18:19;;;;;;;47.43;44.27;;;;;;;18.04;100.00;100995.61;1941330;74;31556;-74
2021/09/27 00:23:45;;;;;;;49.43;46.20;;;;;;;18.05;100.00;100988.84;1941172;74;31057;-67
2021/09/27 00:29:11;;;;;;;48.77;45.47;;;;;;;18.12;100.00;100983.53;1941043;74;31046;-67
2021/09/27 00:34:36;;;;;;;49.70;46.40;;;;;;;18.20;100.00;100972.84;1941209;74;31145;-74
2021/09/27 00:40:00;;;;;;;47.97;44.77;;;;;;;18.22;100.00;100971.95;1941292;74;33481;-74
2021/09/27 00:45:28;;;;;;;46.87;43.83;;;;;;;18.28;100.00;100952.89;1941134;74;31089;-74
2021/09/27 00:50:56;;;;;;;47.20;43.93;;;;;;;18.29;100.00;100953.98;1941338;74;31016;-67
2021/09/27 00:56:24;;;;;;;46.03;42.70;;;;;;;18.32;100.00;100937.83;1941103;74;31109;-67
2021/09/27 01:01:50;;;;;;;48.50;45.23;;;;;;;18.33;100.00;100922.62;1941202;74;31041;-74
2021/09/27 01:07:22;;;;;;;48.40;45.00;;;;;;;18.37;100.00;100911.52;1941306;74;31603;-74
2021/09/27 01:13:14;;;;;;;47.10;43.87;;;;;;;18.39;100.00;100912.02;1941238;74;34258;-67
2021/09/27 01:18:46;;;;;;;47.17;43.90;;;;;;;18.38;100.00;100904.16;1941313;74;33478;-68
2021/09/27 01:21:46;;;;;;;47.30;44.30;;;;;;;18.36;100.00;100904.23;1904853;75;24676;-74
2021/09/27 01:28:21;;;;;;;46.23;42.97;;;;;;;18.43;100.00;100887.68;1941330;74;31095;-74
2021/09/27 01:31:06;;;;;;;45.87;42.77;;;;;;;18.43;100.00;100893.31;1904486;75;24687;-68
2021/09/27 01:33:40;;;;;;;45.53;42.43;;;;;;;18.45;100.00;100895.19;1904472;75;24653;-74
2021/09/27 01:36:14;;;;;;;46.40;43.33;;;;;;;18.39;100.00;100882.48;1905019;75;24236;-68
2021/09/27 01:38:47;;;;;;;46.53;43.37;;;;;;;18.40;100.00;100875.70;1904779;75;24199;-74
2021/09/27 01:41:24;;;;;;;44.77;41.73;;;;;;;18.47;100.00;100868.39;1905065;75;24178;-74
2021/09/27 01:43:57;;;;;;;46.33;43.07;;;;;;;18.43;100.00;100867.99;1904877;75;24764;-74
2021/09/27 01:46:30;;;;;;;44.00;41.10;;;;;;;18.43;100.00;100862.37;1904912;75;24496;-66
2021/09/27 01:51:59;;;;;;;50.47;47.03;;;;;;;18.58;100.00;100853.38;1940971;74;31053;-74
2021/09/27 01:57:29;;;;;;;46.83;43.73;;;;;;;18.52;100.00;100847.14;1941262;74;31110;-67
2021/09/27 02:00:02;;;;;;;46.17;42.77;;;;;;;18.47;100.00;100853.49;1904834;75;24589;-74
2021/09/27 02:05:32;;;;;;;45.13;42.07;;;;;;;18.55;100.00;100843.64;1941225;74;33851;-67
2021/09/27 02:11:01;;;;;;;48.90;45.70;;;;;;;18.60;100.00;100833.61;1940980;74;31159;-74
2021/09/27 02:16:32;;;;;;;47.17;43.97;;;;;;;18.64;100.00;100826.71;1941014;74;31058;-74
2021/09/27 02:19:06;;;;;;;46.63;43.43;;;;;;;18.64;100.00;100835.15;1904943;75;24485;-74
2021/09/27 02:21:39;;;;;;;47.83;44.70;;;;;;;18.64;100.00;100839.38;1904805;75;24194;-68
2021/09/27 02:24:19;;;;;;;46.03;42.87;;;;;;;18.66;100.00;100842.66;1904957;75;24190;-73
2021/09/27 02:29:44;;;;;;;47.53;44.20;;;;;;;18.55;100.00;100824.52;1941239;74;31160;-74
2021/09/27 02:35:15;;;;;;;48.87;45.60;;;;;;;18.34;100.00;100830.64;1941194;74;33497;-68
2021/09/27 02:37:49;;;;;;;46.83;43.50;;;;;;;18.25;100.00;100839.11;1904963;75;24138;-68
2021/09/27 02:40:22;;;;;;;47.60;44.40;;;;;;;18.19;100.00;100830.61;1905239;75;24659;-67
2021/09/27 02:45:49;;;;;;;47.03;43.83;;;;;;;18.11;100.00;100808.41;1941056;74;31116;-67
2021/09/27 02:51:15;;;;;;;47.80;44.33;;;;;;;18.01;100.00;100806.55;1941045;74;31055;-74
2021/09/27 02:56:48;;;;;;;49.67;46.30;;;;;;;18.07;100.00;100786.34;1941209;74;31058;-74
2021/09/27 03:02:18;;;;;;;46.90;43.50;;;;;;;17.95;100.00;100750.27;1941076;74;31114;-74
2021/09/27 03:04:55;;;;;;;46.53;43.13;;;;;;;17.91;100.00;100746.48;1868983;76;26704;-74
2021/09/27 03:07:30;;;;;;;46.13;42.67;;;;;;;17.86;100.00;100723.61;1904973;75;26719;-73
2021/09/27 03:10:05;;;;;;;47.63;44.27;;;;;;;17.87;100.00;100733.70;1904692;75;24699;-67
2021/09/27 03:12:41;;;;;;;47.37;43.97;;;;;;;17.88;100.00;100714.28;1904746;75;24641;-65
2021/09/27 03:18:27;;;;;;;47.03;43.77;;;;;;;17.87;100.00;100671.88;1941234;74;33475;-67
2021/09/27 03:24:11;;;;;;;47.23;43.77;;;;;;;17.89;100.00;100671.52;1941204;74;33547;-67
2021/09/27 03:26:46;;;;;;;45.87;42.77;;;;;;;17.80;100.00;100694.04;1904097;75;26695;-74
2021/09/27 03:29:20;;;;;;;45.87;42.67;;;;;;;17.81;100.00;100705.53;1904260;75;26752;-75
2021/09/27 03:31:54;;;;;;;46.37;43.37;;;;;;;17.85;100.00;100721.13;1903343;75;24708;-74
2021/09/27 03:37:38;;;;;;;44.87;41.63;;;;;;;17.90;100.00;100729.38;1940998;74;31116;-67
2021/09/27 03:40:17;;;;;;;44.47;41.20;;;;;;;17.87;100.00;100742.70;1905044;75;24174;-74
2021/09/27 03:42:50;;;;;;;44.90;41.90;;;;;;;17.93;100.00;100737.12;1904928;75;24882;-74
2021/09/27 03:48:20;;;;;;;46.03;42.67;;;;;;;17.95;100.00;100713.73;1941229;74;31583;-67
2021/09/27 03:53:49;;;;;;;48.63;45.20;;;;;;;17.98;100.00;100698.42;1940977;74;31103;-68
2021/09/27 03:59:19;;;;;;;47.20;43.87;;;;;;;17.92;100.00;100683.51;1940846;74;31120;-67
2021/09/27 04:04:57;;;;;;;45.97;42.43;;;;;;;17.91;100.00;100678.47;1941031;74;31124;-75
2021/09/27 04:10:29;;;;;;;46.70;43.07;;;;;;;17.92;100.00;100675.08;1941210;74;33559;-67
2021/09/27 04:16:21;;;;;;;47.47;43.67;;;;;;;17.89;100.00;100670.11;1941215;74;33506;-74
2021/09/27 04:18:56;;;;;;;45.57;42.00;;;;;;;17.88;100.00;100660.06;1905054;75;26732;-73
2021/09/27 04:21:30;;;;;;;47.33;43.70;;;;;;;17.89;100.00;100652.67;1904918;75;24664;-65
2021/09/27 04:24:11;;;;;;;45.53;42.00;;;;;;;17.90;100.00;100647.88;1904909;75;24198;-73
2021/09/27 04:26:49;;;;;;;47.40;43.70;;;;;;;17.91;100.00;100650.94;1904972;75;24719;-72
2021/09/27 04:29:49;;;;;;;45.87;42.37;;;;;;;17.91;100.00;100632.67;1903932;75;24674;-65
2021/09/27 04:32:28;;;;;;;48.67;45.03;;;;;;;17.93;100.00;100622.73;1905040;75;24233;-65
2021/09/27 04:37:56;;;;;;;48.50;44.73;;;;;;;17.98;100.00;100608.48;1941217;74;33538;-75
2021/09/27 04:43:31;;;;;;;48.90;45.17;;;;;;;17.94;100.00;100609.50;1941282;74;33559;-67
2021/09/27 04:46:08;;;;;;;45.63;41.90;;;;;;;17.94;100.00;100602.48;1868666;76;24689;-74
2021/09/27 04:51:50;;;;;;;48.07;44.27;;;;;;;17.98;100.00;100583.19;1941095;74;31125;-74
2021/09/27 04:57:49;;;;;;;48.27;44.37;;;;;;;18.01;100.00;100578.28;1941344;74;31592;-67
2021/09/27 05:00:22;;;;;;;46.53;42.70;;;;;;;17.97;100.00;100580.74;1904839;75;24253;-65
2021/09/27 05:06:27;;;;;;;46.33;42.40;;;;;;;17.95;100.00;100554.95;1941258;74;31110;-75
2021/09/27 05:12:26;;;;;;;43.13;39.63;;;;;;;18.05;100.00;100544.14;1941089;74;31161;-68
2021/09/27 05:15:06;;;;;;;44.87;41.43;;;;;;;18.00;100.00;100544.34;1905028;75;24299;-75
2021/09/27 05:17:57;;;;;;;45.17;41.10;;;;;;;18.00;100.00;100541.53;1905012;75;24150;-74
2021/09/27 05:20:52;;;;;;;46.03;42.53;;;;;;;18.01;100.00;100531.11;1905132;75;24181;-74
2021/09/27 05:26:51;;;;;;;47.50;43.63;;;;;;;18.03;100.00;100514.14;1941271;74;31550;-67
2021/09/27 05:32:41;;;;;;;49.87;45.83;;;;;;;18.11;100.00;100494.14;1941331;74;31058;-74
2021/09/27 05:35:39;;;;;;;44.57;41.03;;;;;;;18.02;100.00;100499.83;1905088;75;24130;-75
2021/09/27 05:41:12;;;;;;;50.77;46.83;;;;;;;18.06;100.00;100483.92;1941351;74;31537;-74
2021/09/27 05:43:54;;;;;;;45.77;42.17;;;;;;;18.00;100.00;100485.90;1905229;75;24182;-67
2021/09/27 05:46:53;;;;;;;45.33;41.93;;;;;;;17.99;100.00;100480.03;1904915;75;24676;-68
2021/09/27 05:49:27;;;;;;;45.23;41.77;;;;;;;17.95;100.00;100476.27;1889342;75;24258;-68
2021/09/27 05:52:01;;;;;;;46.57;43.13;;;;;;;17.94;100.00;100463.38;1905087;75;24593;-76
2021/09/27 05:54:35;;;;;;;47.50;44.27;;;;;;;17.94;100.00;100452.13;1905083;75;24562;-68
2021/09/27 06:00:06;;;;;;;44.53;41.13;;;;;;;17.96;100.00;100440.80;1940938;74;31104;-76
2021/09/27 06:02:43;;;;;;;46.27;42.87;;;;;;;17.93;100.00;100448.50;1904890;75;24228;-76
2021/09/27 06:08:15;;;;;;;45.13;41.70;;;;;;;17.96;100.00;100418.33;1940962;74;31149;-77
2021/09/27 06:13:44;;;;;;;45.03;41.63;;;;;;;17.78;100.00;100393.53;1941009;74;31099;-72
2021/09/27 06:16:18;;;;;;;46.33;43.30;;;;;;;17.72;100.00;100404.14;1904908;75;24134;-78
2021/09/27 06:22:13;;;;;;;47.60;44.57;;;;;;;17.70;100.00;100372.20;1940842;74;31154;-78
2021/09/27 06:24:51;;;;;;;43.97;40.77;;;;;;;17.71;100.00;100385.06;1904871;75;24150;-78
2021/09/27 06:27:27;;;;;;;46.53;43.13;;;;;;;17.64;100.00;100378.36;1904808;75;24153;-78
2021/09/27 06:30:02;;;;;;;44.80;41.80;;;;;;;17.62;100.00;100366.09;1905108;75;26651;-79
2021/09/27 06:32:36;;;;;;;43.17;40.03;;;;;;;17.64;100.00;100359.53;1905080;75;24242;-79
2021/09/27 06:35:10;;;;;;;42.10;39.20;;;;;;;17.68;100.00;100361.06;1905103;75;24150;-80
2021/09/27 06:40:40;;;;;;;42.23;39.40;;;;;;;17.68;100.00;100343.62;1941172;74;31046;-71
2021/09/27 06:46:06;;;;;;;40.70;37.87;;;;;;;17.70;100.00;100329.25;1941275;74;33571;-72
2021/09/27 06:51:30;;;;;;;40.83;38.03;;;;;;;17.71;100.00;100323.88;1941331;74;31096;-77
2021/09/27 06:56:55;;;;;;;42.03;39.23;;;;;;;17.76;100.00;100326.44;1941338;74;31493;-73
2021/09/27 07:02:25;;;;;;;41.97;39.07;;;;;;;17.72;100.00;100324.91;1941180;74;33550;-76
2021/09/27 07:07:49;;;;;;;42.00;39.40;;;;;;;17.80;100.00;100316.16;1941230;74;31052;-78
2021/09/27 07:13:16;;;;;;;43.63;40.77;;;;;;;17.84;100.00;100322.72;1941099;74;31047;-73
2021/09/27 07:18:41;;;;;;;43.37;40.60;;;;;;;17.98;100.00;100316.20;1941414;74;31175;-79
2021/09/27 07:24:08;;;;;;;45.37;42.17;;;;;;;18.06;100.00;100330.74;1941334;74;31132;-78
2021/09/27 07:29:53;;;;;;;44.27;41.37;;;;;;;18.13;100.00;100332.42;2010058;71;30878;-73
2021/09/27 07:35:20;;;;;;;46.00;43.10;;;;;;;17.99;100.00;100329.09;1941128;74;31109;-74
2021/09/27 07:40:45;;;;;;;41.77;38.73;;;;;;;18.08;100.00;100334.05;1941307;74;31537;-72
2021/09/27 07:46:10;;;;;;;50.80;47.50;;;;;;;17.79;100.00;100439.55;1941108;74;31047;-75
2021/09/27 07:51:37;;;;;;;47.87;44.53;;;;;;;16.10;100.00;100466.29;1941092;74;33077;-75
2021/09/27 07:57:01;;;;;;;46.50;43.10;;;;;;;15.74;100.00;100490.45;1941115;74;31119;-72
2021/09/27 08:02:30;;;;;;;48.53;45.43;;;;;;;15.68;100.00;100498.76;1941271;74;33467;-75
2021/09/27 08:07:54;;;;;;;46.23;42.67;;;;;;;15.70;100.00;100529.25;1941289;74;33662;-71
2021/09/27 08:13:20;;;;;;;46.23;43.03;;;;;;;15.69;100.00;100541.02;1941143;74;33555;-72
2021/09/27 08:18:47;;;;;;;44.60;41.57;;;;;;;15.51;100.00;100552.49;1941279;74;33523;-72
2021/09/27 08:24:10;;;;;;;46.17;42.97;;;;;;;15.45;100.00;100582.00;1941265;74;33466;-75
2021/09/27 08:29:35;;;;;;;44.00;41.00;;;;;;;15.35;100.00;100594.91;1941274;74;32993;-72
2021/09/27 08:35:00;;;;;;;45.37;42.37;;;;;;;15.58;100.00;100608.82;1941047;74;32979;-75
2021/09/27 08:40:33;;;;;;;42.53;39.67;;;;;;;15.53;100.00;100628.02;1941031;74;31065;-75
2021/09/27 08:46:03;;;;;;;43.50;40.50;;;;;;;15.49;100.00;100645.98;1941327;74;33596;-72
2021/09/27 08:48:36;;;;;;;42.60;39.90;;;;;;;15.38;100.00;100665.62;1904542;75;26202;-76
2021/09/27 08:54:02;;;;;;;42.30;39.70;;;;;;;15.41;100.00;100670.56;1941419;74;33473;-71
2021/09/27 08:59:36;;;;;;;40.57;37.80;;;;;;;15.71;100.00;100686.28;1941149;74;33053;-72
2021/09/27 09:02:11;;;;;;;41.13;38.53;;;;;;;15.65;100.00;100699.62;1904507;75;26204;-71
2021/09/27 09:07:43;;;;;;;40.83;38.33;;;;;;;15.88;100.00;100712.39;1941170;74;33087;-71
2021/09/27 09:13:15;;;;;;;43.50;41.00;;;;;;;16.18;100.00;100730.28;1941027;74;33012;-71
2021/09/27 09:18:52;;;;;;;56.17;53.23;;;;;;;16.26;100.00;100737.88;1941114;74;31058;-76
2021/09/27 09:24:21;;;;;;;53.10;50.40;;;;;;;16.25;100.00;100740.45;1941279;74;33497;-71
2021/09/27 09:29:49;;;;;;;45.13;42.73;;;;;;;16.34;100.00;100739.88;1941163;74;31096;-79
2021/09/27 09:35:19;;;;;;;43.97;41.57;;;;;;;16.27;100.00;100760.56;1941385;74;33546;-80
2021/09/27 09:40:54;;;;;;;41.37;39.17;;;;;;;16.32;100.00;100780.03;1941147;74;33072;-75
2021/09/27 09:46:31;;;;;;;37.67;35.67;;;;;;;16.44;100.00;100799.59;1941212;74;33452;-69
2021/09/27 09:52:02;;;;;;;42.70;40.40;;;;;;;16.44;100.00;100810.23;1941072;74;32973;-69
2021/09/27 09:57:32;;;;;;;33.63;31.93;;;;;;;16.62;100.00;100829.38;1941237;74;33012;-71
2021/09/27 10:03:09;;;;;;;34.87;32.97;;;;;;;16.66;100.00;100847.20;1941138;74;33568;-79
2021/09/27 10:08:40;;;;;;;33.70;32.10;;;;;;;16.54;100.00;100853.98;1941054;74;31060;-78
2021/09/27 10:14:38;;;;;;;30.67;29.27;;;;;;;16.66;100.00;100877.48;2009830;71;33277;-70
2021/09/27 10:20:32;;;;;;;29.30;27.90;;;;;;;16.61;100.00;100874.82;1941368;74;33528;-77
2021/09/27 10:26:11;;;;;;;31.03;29.43;;;;;;;16.72;100.00;100884.61;1941218;74;31098;-77
2021/09/27 10:31:39;;;;;;;27.93;26.60;;;;;;;17.05;100.00;100911.66;1941233;74;31023;-73
2021/09/27 10:37:14;;;;;;;28.23;26.90;;;;;;;17.01;100.00;100919.66;1941213;74;31206;-73
2021/09/27 10:42:43;;;;;;;25.50;24.40;;;;;;;16.93;100.00;100926.08;1941377;74;31125;-77
2021/09/27 10:48:10;;;;;;;24.23;23.13;;;;;;;16.94;100.00;100940.37;1941347;74;31136;-72
2021/09/27 10:53:39;;;;;;;22.23;21.13;;;;;;;17.05;100.00;100959.95;1941125;74;31049;-72
2021/09/27 10:59:13;;;;;;;22.13;21.07;;;;;;;17.01;100.00;100975.78;1941371;74;31039;-77
2021/09/27 11:04:43;;;;;;;23.60;22.50;;;;;;;17.26;100.00;100977.27;1941200;74;31119;-77
2021/09/27 11:10:22;;;;;;;23.50;22.40;;;;;;;17.46;100.00;100988.44;1941371;74;31063;-74
2021/09/27 11:15:56;;;;;;;20.63;19.73;;;;;;;17.61;100.00;100992.80;1941413;74;33480;-72
2021/09/27 11:21:43;;;;;;;23.13;22.13;;;;;;;17.40;100.00;101003.80;1941001;74;31055;-76
2021/09/27 11:24:44;;;;;;;22.33;21.30;;;;;;;17.44;100.00;101006.78;1905083;75;24566;-76
2021/09/27 11:30:29;;;;;;;25.17;23.97;;;;;;;17.42;100.00;101011.88;1941370;74;31541;-73
2021/09/27 11:35:59;;;;;;;25.47;24.27;;;;;;;17.43;100.00;101021.39;1941212;74;33598;-76
2021/09/27 11:41:36;;;;;;;27.00;25.80;;;;;;;17.32;100.00;101034.67;1940968;74;31058;-76
2021/09/27 11:47:15;;;;;;;27.10;25.80;;;;;;;17.11;100.00;101053.52;1941113;74;31065;-77
2021/09/27 11:52:51;;;;;;;26.50;25.30;;;;;;;17.22;100.00;101066.67;1941438;74;33513;-78
2021/09/27 11:58:23;;;;;;;31.33;29.83;;;;;;;16.67;100.00;101080.27;1941077;74;31021;-76
2021/09/27 12:03:56;;;;;;;32.73;31.03;;;;;;;16.44;100.00;101094.00;1941181;74;31030;-71
2021/09/27 12:09:26;;;;;;;33.83;32.07;;;;;;;16.65;100.00;101109.19;1941266;74;31009;-72
2021/09/27 12:14:53;;;;;;;51.37;48.87;;;;;;;16.72;100.00;101108.19;1941343;74;31564;-73
2021/09/27 12:20:21;;;;;;;28.07;26.73;;;;;;;17.26;100.00;101103.60;1941175;74;31086;-72
2021/09/27 12:25:49;;;;;;;29.47;28.13;;;;;;;17.36;100.00;101101.09;1941414;74;31603;-76
2021/09/27 12:31:23;;;;;;;25.53;24.33;;;;;;;17.47;100.00;101104.41;1941301;74;32989;-75
2021/09/27 12:36:48;;;;;;;23.70;22.60;;;;;;;17.75;100.00;101108.67;1941258;74;31055;-79
2021/09/27 12:42:20;;;;;;;21.30;20.40;;;;;;;18.06;100.00;101099.53;1941295;74;33496;-78
2021/09/27 12:47:49;;;;;;;20.60;19.63;;;;;;;18.17;100.00;101111.30;1941309;74;31182;-76
2021/09/27 12:53:18;;;;;;;18.60;17.80;;;;;;;18.05;100.00;101121.80;1941176;74;31069;-68
2021/09/27 12:58:47;;;;;;;18.10;17.30;;;;;;;18.34;100.00;101128.17;1941146;74;31059;-68
2021/09/27 13:04:15;;;;;;;17.70;17.00;;;;;;;18.30;100.00;101140.41;1941206;74;31138;-68
2021/09/27 13:10:06;;;;;;;19.83;18.93;;;;;;;18.08;100.00;101150.64;1941148;74;31171;-68
2021/09/27 13:15:34;;;;;;;18.77;17.90;;;;;;;18.12;100.00;101150.81;1941394;74;31564;-76
2021/09/27 13:21:07;;;;;;;19.33;18.43;;;;;;;18.02;100.00;101154.76;1941322;74;31167;-68
2021/09/27 13:26:38;;;;;;;17.63;16.90;;;;;;;19.49;100.00;101156.32;1941296;74;31043;-76
2021/09/27 13:29:21;;;;;;;17.93;17.23;;;;;;;19.28;100.00;101151.73;1905238;75;24585;-76
2021/09/27 13:34:58;;;;;;;15.43;14.67;;;;;;;19.70;100.00;101157.80;1941337;74;31135;-68
2021/09/27 13:40:27;;;;;;;13.60;13.00;;;;;;;19.46;100.00;101165.46;1941043;74;31057;-68
2021/09/27 13:43:25;;;;;;;12.40;11.90;;;;;;;19.73;100.00;101159.93;1905093;75;24235;-76
2021/09/27 13:48:52;;;;;;;12.10;11.60;;;;;;;18.62;100.00;101191.98;1941120;74;31033;-79
2021/09/27 13:54:19;;;;;;;11.87;11.27;;;;;;;18.20;100.00;101203.41;1940995;74;31023;-76
2021/09/27 13:59:45;;;;;;;11.30;10.90;;;;;;;18.34;100.00;101213.13;1941176;74;31017;-77
2021/09/27 14:05:12;;;;;;;11.53;10.93;;;;;;;18.16;100.00;101224.91;1941222;74;31502;-76
2021/09/27 14:10:37;;;;;;;11.20;10.70;;;;;;;18.22;100.00;101218.56;1941331;74;33453;-79
2021/09/27 14:16:05;;;;;;;10.93;10.43;;;;;;;18.52;100.00;101228.88;1940993;74;31012;-77
2021/09/27 14:21:31;;;;;;;10.67;10.27;;;;;;;18.50;100.00;101229.77;1941413;74;31638;-80
2021/09/27 14:26:54;;;;;;;11.57;10.97;;;;;;;18.41;100.00;101240.18;1941344;74;31666;-80
2021/09/27 14:32:19;;;;;;;11.47;10.77;;;;;;;18.63;100.00;101238.67;1941308;74;31115;-78
2021/09/27 14:37:43;;;;;;;11.30;10.80;;;;;;;18.78;100.00;101248.05;1941280;74;31539;-70
2021/09/27 14:43:10;;;;;;;10.60;10.07;;;;;;;18.86;100.00;101252.02;1941143;74;31022;-77
2021/09/27 14:48:36;;;;;;;12.33;11.83;;;;;;;18.77;100.00;101261.03;1941314;74;33521;-77
2021/09/27 14:54:01;;;;;;;11.27;10.87;;;;;;;18.85;100.00;101267.24;1941141;74;31582;-76
2021/09/27 14:59:27;;;;;;;11.07;10.57;;;;;;;18.71;100.00;101275.00;1941064;74;31020;-76
2021/09/27 15:04:51;;;;;;;11.37;10.87;;;;;;;18.74;100.00;101296.27;1941134;74;31028;-75
2021/09/27 15:10:18;;;;;;;11.30;10.80;;;;;;;18.61;100.00;101295.88;1941171;74;31030;-69
2021/09/27 15:15:45;;;;;;;11.27;10.77;;;;;;;18.64;100.00;101296.03;1941029;74;31037;-77
2021/09/27 15:21:13;;;;;;;11.43;10.93;;;;;;;18.75;100.00;101304.98;1941317;74;31015;-69
2021/09/27 15:26:43;;;;;;;10.73;10.23;;;;;;;18.71;100.00;101309.61;1941183;74;31031;-68
2021/09/27 15:32:13;;;;;;;11.30;10.80;;;;;;;18.46;100.00;101317.39;1941431;74;31091;-76
2021/09/27 15:37:40;;;;;;;10.57;10.07;;;;;;;18.50;100.00;101314.17;1941152;74;33571;-76
2021/09/27 15:43:06;;;;;;;11.10;10.60;;;;;;;18.47;100.00;101322.70;1941329;74;31193;-77
2021/09/27 15:48:31;;;;;;;11.43;10.83;;;;;;;18.59;100.00;101330.53;1941183;74;31107;-69
2021/09/27 15:53:56;;;;;;;11.50;10.90;;;;;;;18.53;100.00;101344.48;1941096;74;31028;-78
2021/09/27 15:59:22;;;;;;;11.03;10.50;;;;;;;18.44;100.00;101356.28;1941362;74;31084;-78
2021/09/27 16:04:46;;;;;;;10.47;10.07;;;;;;;18.41;100.00;101360.56;1941076;74;31012;-79
2021/09/27 16:10:14;;;;;;;11.30;10.73;;;;;;;18.41;100.00;101366.77;1941082;74;31028;-74
2021/09/27 16:15:38;;;;;;;10.60;10.10;;;;;;;18.32;100.00;101367.30;1941096;74;31075;-76
2021/09/27 16:21:05;;;;;;;10.47;9.97;;;;;;;18.24;100.00;101375.13;1941178;74;31033;-74
2021/09/27 16:26:28;;;;;;;10.63;10.07;;;;;;;18.21;100.00;101385.05;1941283;74;31539;-73
2021/09/27 16:32:12;;;;;;;9.73;9.03;;;;;;;18.12;100.00;101387.82;2010105;71;31381;-80
2021/09/27 16:37:37;;;;;;;11.67;10.87;;;;;;;19.30;100.00;101393.88;1941209;74;31068;-76
2021/09/27 16:43:07;;;;;;;11.60;11.00;;;;;;;19.42;100.00;101401.12;1941480;74;31599;-76
2021/09/27 16:48:31;;;;;;;10.50;10.00;;;;;;;19.38;100.00;101414.18;1941194;74;31108;-76
2021/09/27 16:53:55;;;;;;;10.87;10.37;;;;;;;18.01;100.00;101426.37;1941106;74;31097;-78
2021/09/27 16:59:20;;;;;;;11.27;10.73;;;;;;;17.64;100.00;101443.87;1940967;74;31109;-76
2021/09/27 17:04:45;;;;;;;10.60;10.10;;;;;;;17.48;100.00;101435.53;1941130;74;31528;-76
2021/09/27 17:10:11;;;;;;;11.03;10.33;;;;;;;17.41;100.00;101452.58;1941285;74;33584;-72
2021/09/27 17:21:18;;;;;;;10.63;10.13;;;;;;;17.30;100.00;101463.20;1941214;74;33091;-68
2021/09/27 17:26:44;;;;;;;11.30;10.67;;;;;;;17.22;100.00;101471.80;1941171;74;31122;-72
2021/09/27 17:32:16;;;;;;;10.90;10.20;;;;;;;17.12;100.00;101476.22;1941286;74;31096;-74
2021/09/27 17:37:41;;;;;;;11.17;10.67;;;;;;;17.03;100.00;101488.52;1941191;74;31024;-67
2021/09/27 17:43:09;;;;;;;11.27;10.70;;;;;;;16.79;100.00;101502.75;1941054;74;31100;-68
2021/09/27 17:48:33;;;;;;;12.70;11.87;;;;;;;16.78;100.00;101505.28;1941096;74;31016;-68
2021/09/27 17:54:00;;;;;;;13.40;12.60;;;;;;;16.67;100.00;101516.45;1941033;74;31108;-66
2021/09/27 17:59:26;;;;;;;13.53;12.73;;;;;;;16.59;100.00;101527.00;1941057;74;32996;-72
2021/09/27 18:04:50;;;;;;;12.90;12.10;;;;;;;16.51;100.00;101541.70;1941103;74;33147;-70
2021/09/27 18:10:16;;;;;;;13.13;12.23;;;;;;;16.28;100.00;101558.35;1941128;74;33035;-69
2021/09/27 18:15:41;;;;;;;12.47;11.87;;;;;;;16.39;100.00;101552.82;1941274;74;33186;-67
2021/09/27 18:21:09;;;;;;;14.33;13.60;;;;;;;16.30;100.00;101567.88;1941246;74;31590;-70
2021/09/27 18:26:40;;;;;;;14.10;13.40;;;;;;;16.12;100.00;101574.33;1941246;74;31525;-67
2021/09/27 18:32:08;;;;;;;15.40;14.57;;;;;;;15.97;100.00;101592.20;1941223;74;31812;-68
2021/09/27 18:37:33;;;;;;;15.70;14.60;;;;;;;15.85;100.00;101594.07;1941242;74;33575;-67
2021/09/27 18:42:57;;;;;;;18.00;17.23;;;;;;;15.76;100.00;101607.08;1941331;74;31563;-68
2021/09/27 18:48:23;;;;;;;21.87;20.47;;;;;;;15.37;100.00;101613.45;1941245;74;33489;-67
2021/09/27 18:53:49;;;;;;;24.97;23.47;;;;;;;15.21;100.00;101624.00;1941244;74;33472;-67
2021/09/27 18:59:14;;;;;;;27.87;26.27;;;;;;;15.16;100.00;101626.86;1941040;74;32995;-72
2021/09/27 19:04:38;;;;;;;27.87;25.80;;;;;;;15.01;100.00;101644.66;1941036;74;33117;-70
2021/09/27 19:10:03;;;;;;;27.17;25.57;;;;;;;14.95;100.00;101655.62;1940974;74;33027;-68
2021/09/27 19:15:29;;;;;;;31.17;29.27;;;;;;;15.03;100.00;101666.73;1941275;74;33072;-69
2021/09/27 19:20:59;;;;;;;34.43;32.43;;;;;;;14.85;100.00;101678.65;1941329;74;33484;-71
2021/09/27 19:26:27;;;;;;;35.63;33.47;;;;;;;14.80;100.00;101689.34;1941006;74;32955;-70
2021/09/27 19:31:55;;;;;;;40.83;38.17;;;;;;;14.66;100.00;101677.72;1941049;74;32956;-72
2021/09/27 19:37:27;;;;;;;40.07;37.37;;;;;;;14.79;100.00;101695.23;1941249;74;33568;-69
2021/09/27 19:42:52;;;;;;;37.60;35.30;;;;;;;14.70;100.00;101698.37;1941077;74;33005;-68
2021/09/27 19:48:23;;;;;;;42.10;39.60;;;;;;;14.49;100.00;101706.09;1941257;74;33603;-69
2021/09/27 19:53:49;;;;;;;40.90;38.43;;;;;;;14.46;100.00;101717.27;1941251;74;33503;-68
2021/09/27 19:59:16;;;;;;;42.07;39.47;;;;;;;14.39;100.00;101720.12;1941265;74;33040;-72
2021/09/27 20:04:42;;;;;;;42.90;40.03;;;;;;;14.35;100.00;101725.47;1941284;74;33572;-74
2021/09/27 20:10:13;;;;;;;41.90;39.47;;;;;;;14.29;100.00;101734.96;1941021;74;32977;-69
2021/09/27 20:15:41;;;;;;;43.80;41.27;;;;;;;14.32;100.00;101740.55;1941255;74;33044;-72
2021/09/27 20:21:07;;;;;;;42.67;40.07;;;;;;;14.27;100.00;101741.42;1941240;74;33534;-71
2021/09/27 20:26:32;;;;;;;44.17;41.57;;;;;;;14.12;100.00;101748.47;1941124;74;33050;-74
2021/09/27 20:32:05;;;;;;;44.63;41.97;;;;;;;14.02;100.00;101753.56;1941259;74;33568;-69
2021/09/27 20:37:36;;;;;;;41.60;38.93;;;;;;;14.09;100.00;101763.02;1941049;74;33105;-68
2021/09/27 20:43:07;;;;;;;42.60;40.00;;;;;;;13.84;100.00;101770.95;1941223;74;33554;-72
2021/09/27 20:48:35;;;;;;;43.73;40.93;;;;;;;13.76;100.00;101767.91;1941050;74;33065;-68
2021/09/27 20:54:24;;;;;;;44.63;41.77;;;;;;;13.73;100.00;101776.86;2003952;71;33298;-71
2021/09/27 20:59:57;;;;;;;45.83;42.80;;;;;;;13.69;100.00;101784.98;1940991;74;33055;-68
2021/09/27 21:05:45;;;;;;;44.67;41.77;;;;;;;13.51;100.00;101798.13;2009723;71;32828;-69
2021/09/27 21:11:15;;;;;;;44.13;41.27;;;;;;;13.42;100.00;101804.84;1941357;74;33051;-69
2021/09/27 21:16:47;;;;;;;44.30;41.40;;;;;;;13.26;100.00;101811.56;1941027;74;33028;-67
2021/09/27 21:22:15;;;;;;;44.07;41.23;;;;;;;13.36;100.00;101825.48;1940968;74;32997;-68
2021/09/27 21:27:40;;;;;;;45.03;41.93;;;;;;;13.25;100.00;101829.41;1941037;74;32993;-69
2021/09/27 21:33:06;;;;;;;43.53;40.73;;;;;;;13.26;100.00;101831.09;1941129;74;33078;-68
2021/09/27 21:38:31;;;;;;;45.60;42.40;;;;;;;13.30;100.00;101831.37;1941101;74;33191;-68
2021/09/27 21:43:55;;;;;;;41.77;39.20;;;;;;;13.27;100.00;101849.48;1941195;74;32992;-68
2021/09/27 21:49:20;;;;;;;41.53;38.80;;;;;;;13.23;100.00;101850.61;1941222;74;33478;-71
2021/09/27 21:54:45;;;;;;;41.67;38.97;;;;;;;13.20;100.00;101857.30;1941229;74;33084;-69
2021/09/27 22:00:20;;;;;;;42.73;39.93;;;;;;;13.19;100.00;101853.67;1941303;74;33552;-68
2021/09/27 22:02:49;;;;;;;43.40;40.47;;;;;;;13.10;100.00;101867.02;1903803;75;26697;-68
2021/09/27 22:08:19;;;;;;;42.57;39.60;;;;;;;13.06;100.00;101863.95;1941113;74;33046;-69
2021/09/27 22:13:49;;;;;;;44.50;41.50;;;;;;;12.98;100.00;101866.45;1941272;74;33522;-68
2021/09/27 22:19:13;;;;;;;42.97;40.10;;;;;;;12.89;100.00;101870.89;1941010;74;33111;-67